sensor_id;sensor_type;location;lat;lon;timestamp;temperature;humidity
27779;DHT22;30234;48.090;11.464;2023-07-31T00:03:38;15.10;99.90
27779;DHT22;30234;48.090;11.464;2023-07-31T00:07:39;15.10;99.90
27779;DHT22;30234;48.090;11.464;2023-07-31T00:11:40;14.80;99.90
27779;DHT22;30234;48.090;11.464;2023-07-31T00:15:41;14.60;99.90
27779;DHT22;30234;48.090;11.464;2023-07-31T00:19:42;14.40;99.90
27779;DHT22;30234;48.090;11.464;2023-07-31T00:23:43;14.40;99.90
27779;DHT22;30234;48.090;11.464;2023-07-31T00:27:44;14.20;99.90
27779;DHT22;30234;48.090;11.464;2023-07-31T00:31:46;14.10;99.90
27779;DHT22;30234;48.090;11.464;2023-07-31T00:35:49;14.10;99.90
27779;DHT22;30234;48.090;11.464;2023-07-31T00:39:50;14.00;99.90
27779;DHT22;30234;48.090;11.464;2023-07-31T00:43:51;14.00;99.90
27779;DHT22;30234;48.090;11.464;2023-07-31T00:47:52;14.00;99.90
27779;DHT22;30234;48.090;11.464;2023-07-31T00:51:53;13.80;99.90
27779;DHT22;30234;48.090;11.464;2023-07-31T00:55:54;13.70;99.90
27779;DHT22;30234;48.090;11.464;2023-07-31T00:59:55;13.70;99.90
27779;DHT22;30234;48.090;11.464;2023-07-31T01:03:56;13.80;99.90
27779;DHT22;30234;48.090;11.464;2023-07-31T01:08:11;13.70;99.90
27779;DHT22;30234;48.090;11.464;2023-07-31T01:12:16;13.80;99.90
27779;DHT22;30234;48.090;11.464;2023-07-31T01:16:18;13.90;99.90
27779;DHT22;30234;48.090;11.464;2023-07-31T01:20:22;14.00;99.90
27779;DHT22;30234;48.090;11.464;2023-07-31T01:24:48;14.20;99.90
27779;DHT22;30234;48.090;11.464;2023-07-31T01:33:29;14.40;99.90
27779;DHT22;30234;48.090;11.464;2023-07-31T01:37:30;14.50;99.90
27779;DHT22;30234;48.090;11.464;2023-07-31T01:41:31;14.60;99.90
27779;DHT22;30234;48.090;11.464;2023-07-31T01:45:32;14.80;99.90
27779;DHT22;30234;48.090;11.464;2023-07-31T01:49:33;14.90;99.90
27779;DHT22;30234;48.090;11.464;2023-07-31T01:53:34;14.80;99.90
27779;DHT22;30234;48.090;11.464;2023-07-31T01:57:36;14.80;99.90
27779;DHT22;30234;48.090;11.464;2023-07-31T02:01:37;14.90;99.90
27779;DHT22;30234;48.090;11.464;2023-07-31T02:05:48;15.00;99.90
27779;DHT22;30234;48.090;11.464;2023-07-31T02:09:49;15.00;99.90
27779;DHT22;30234;48.090;11.464;2023-07-31T02:13:50;15.00;99.90
27779;DHT22;30234;48.090;11.464;2023-07-31T02:17:51;15.00;99.90
27779;DHT22;30234;48.090;11.464;2023-07-31T02:21:52;14.80;99.90
27779;DHT22;30234;48.090;11.464;2023-07-31T02:25:53;14.60;99.90
27779;DHT22;30234;48.090;11.464;2023-07-31T02:29:54;14.40;99.90
27779;DHT22;30234;48.090;11.464;2023-07-31T02:33:55;14.50;99.90
27779;DHT22;30234;48.090;11.464;2023-07-31T02:37:59;14.50;99.90
27779;DHT22;30234;48.090;11.464;2023-07-31T02:42:00;14.50;99.90
27779;DHT22;30234;48.090;11.464;2023-07-31T02:46:01;14.20;99.90
27779;DHT22;30234;48.090;11.464;2023-07-31T02:50:03;14.30;99.90
27779;DHT22;30234;48.090;11.464;2023-07-31T02:54:04;14.10;99.90
27779;DHT22;30234;48.090;11.464;2023-07-31T02:58:05;14.10;99.90
27779;DHT22;30234;48.090;11.464;2023-07-31T03:02:06;13.90;99.90
27779;DHT22;30234;48.090;11.464;2023-07-31T03:06:07;14.20;99.90
27779;DHT22;30234;48.090;11.464;2023-07-31T03:10:08;14.00;99.90
27779;DHT22;30234;48.090;11.464;2023-07-31T03:14:09;13.90;99.90
27779;DHT22;30234;48.090;11.464;2023-07-31T03:18:10;13.80;99.90
27779;DHT22;30234;48.090;11.464;2023-07-31T03:22:10;13.80;99.90
27779;DHT22;30234;48.090;11.464;2023-07-31T03:26:11;13.70;99.90
27779;DHT22;30234;48.090;11.464;2023-07-31T03:30:12;13.70;99.90
27779;DHT22;30234;48.090;11.464;2023-07-31T03:34:13;13.80;99.90
27779;DHT22;30234;48.090;11.464;2023-07-31T03:38:14;13.70;99.90
27779;DHT22;30234;48.090;11.464;2023-07-31T03:42:15;13.60;99.90
27779;DHT22;30234;48.090;11.464;2023-07-31T03:46:16;13.50;99.90
27779;DHT22;30234;48.090;11.464;2023-07-31T03:50:17;13.30;99.90
27779;DHT22;30234;48.090;11.464;2023-07-31T03:54:18;13.20;99.90
27779;DHT22;30234;48.090;11.464;2023-07-31T03:58:19;13.20;99.90
27779;DHT22;30234;48.090;11.464;2023-07-31T04:02:19;13.40;99.90
27779;DHT22;30234;48.090;11.464;2023-07-31T04:06:20;13.50;99.90
27779;DHT22;30234;48.090;11.464;2023-07-31T04:10:21;13.60;99.90
27779;DHT22;30234;48.090;11.464;2023-07-31T04:14:23;13.80;99.90
27779;DHT22;30234;48.090;11.464;2023-07-31T04:18:25;14.10;99.90
27779;DHT22;30234;48.090;11.464;2023-07-31T04:22:27;14.30;99.90
27779;DHT22;30234;48.090;11.464;2023-07-31T04:26:28;14.50;99.90
27779;DHT22;30234;48.090;11.464;2023-07-31T04:30:29;14.60;99.90
27779;DHT22;30234;48.090;11.464;2023-07-31T04:34:30;14.70;99.90
27779;DHT22;30234;48.090;11.464;2023-07-31T04:38:30;14.80;99.90
27779;DHT22;30234;48.090;11.464;2023-07-31T04:42:31;15.10;99.90
27779;DHT22;30234;48.090;11.464;2023-07-31T04:46:32;15.60;99.90
27779;DHT22;30234;48.090;11.464;2023-07-31T04:50:33;16.30;99.90
27779;DHT22;30234;48.090;11.464;2023-07-31T04:54:34;17.00;99.90
27779;DHT22;30234;48.090;11.464;2023-07-31T04:58:35;18.60;99.90
27779;DHT22;30234;48.090;11.464;2023-07-31T05:02:36;20.50;99.90
27779;DHT22;30234;48.090;11.464;2023-07-31T05:06:37;22.00;99.90
27779;DHT22;30234;48.090;11.464;2023-07-31T05:10:38;22.50;99.90
27779;DHT22;30234;48.090;11.464;2023-07-31T05:14:38;23.90;99.90
27779;DHT22;30234;48.090;11.464;2023-07-31T05:18:39;24.20;99.90
27779;DHT22;30234;48.090;11.464;2023-07-31T05:22:40;25.40;99.90
27779;DHT22;30234;48.090;11.464;2023-07-31T05:26:41;25.50;99.90
27779;DHT22;30234;48.090;11.464;2023-07-31T05:30:42;25.20;99.90
27779;DHT22;30234;48.090;11.464;2023-07-31T05:34:43;25.40;99.90
27779;DHT22;30234;48.090;11.464;2023-07-31T05:38:44;25.00;99.90
27779;DHT22;30234;48.090;11.464;2023-07-31T05:42:45;24.40;99.90
27779;DHT22;30234;48.090;11.464;2023-07-31T05:46:46;24.30;99.90
27779;DHT22;30234;48.090;11.464;2023-07-31T05:50:47;22.70;99.90
27779;DHT22;30234;48.090;11.464;2023-07-31T05:54:47;22.00;99.90
27779;DHT22;30234;48.090;11.464;2023-07-31T05:58:48;21.20;99.90
27779;DHT22;30234;48.090;11.464;2023-07-31T06:02:50;20.60;99.90
27779;DHT22;30234;48.090;11.464;2023-07-31T06:06:52;20.70;99.90
27779;DHT22;30234;48.090;11.464;2023-07-31T06:10:53;21.60;99.90
27779;DHT22;30234;48.090;11.464;2023-07-31T06:14:54;21.80;99.90
27779;DHT22;30234;48.090;11.464;2023-07-31T06:18:55;22.50;99.90
27779;DHT22;30234;48.090;11.464;2023-07-31T06:22:56;22.10;99.90
27779;DHT22;30234;48.090;11.464;2023-07-31T06:26:57;22.60;99.90
27779;DHT22;30234;48.090;11.464;2023-07-31T06:30:58;22.50;99.90
27779;DHT22;30234;48.090;11.464;2023-07-31T06:34:59;21.60;99.90
27779;DHT22;30234;48.090;11.464;2023-07-31T06:39:00;21.70;99.90
27779;DHT22;30234;48.090;11.464;2023-07-31T06:43:01;20.80;99.90
27779;DHT22;30234;48.090;11.464;2023-07-31T06:47:08;20.40;99.90
27779;DHT22;30234;48.090;11.464;2023-07-31T06:51:09;20.50;99.90
27779;DHT22;30234;48.090;11.464;2023-07-31T06:55:18;20.30;99.90
27779;DHT22;30234;48.090;11.464;2023-07-31T06:59:20;20.40;99.90
27779;DHT22;30234;48.090;11.464;2023-07-31T07:03:21;20.80;99.90
27779;DHT22;30234;48.090;11.464;2023-07-31T07:07:22;21.10;99.90
27779;DHT22;30234;48.090;11.464;2023-07-31T07:11:23;21.40;99.90
27779;DHT22;30234;48.090;11.464;2023-07-31T07:15:24;21.30;99.90
27779;DHT22;30234;48.090;11.464;2023-07-31T07:19:25;21.20;99.90
27779;DHT22;30234;48.090;11.464;2023-07-31T07:23:25;21.50;99.90
27779;DHT22;30234;48.090;11.464;2023-07-31T07:27:26;23.20;99.90
27779;DHT22;30234;48.090;11.464;2023-07-31T07:31:28;24.10;99.90
27779;DHT22;30234;48.090;11.464;2023-07-31T07:35:29;23.50;99.90
27779;DHT22;30234;48.090;11.464;2023-07-31T07:39:30;24.30;99.90
27779;DHT22;30234;48.090;11.464;2023-07-31T07:43:31;24.10;99.90
27779;DHT22;30234;48.090;11.464;2023-07-31T07:47:32;23.10;99.90
27779;DHT22;30234;48.090;11.464;2023-07-31T07:51:33;22.40;99.90
27779;DHT22;30234;48.090;11.464;2023-07-31T07:55:35;22.90;99.90
27779;DHT22;30234;48.090;11.464;2023-07-31T07:59:37;23.80;99.90
27779;DHT22;30234;48.090;11.464;2023-07-31T08:03:38;25.10;98.80
27779;DHT22;30234;48.090;11.464;2023-07-31T08:07:39;27.40;95.60
27779;DHT22;30234;48.090;11.464;2023-07-31T08:11:40;28.70;92.50
27779;DHT22;30234;48.090;11.464;2023-07-31T08:15:41;28.30;90.60
27779;DHT22;30234;48.090;11.464;2023-07-31T08:19:43;27.10;88.60
27779;DHT22;30234;48.090;11.464;2023-07-31T08:23:44;26.50;88.70
27779;DHT22;30234;48.090;11.464;2023-07-31T08:27:45;26.10;90.40
27779;DHT22;30234;48.090;11.464;2023-07-31T08:31:46;25.80;90.40
27779;DHT22;30234;48.090;11.464;2023-07-31T08:35:47;26.20;90.80
27779;DHT22;30234;48.090;11.464;2023-07-31T08:39:48;26.50;89.70
27779;DHT22;30234;48.090;11.464;2023-07-31T08:43:50;24.90;91.60
27779;DHT22;30234;48.090;11.464;2023-07-31T08:47:52;24.30;92.70
27779;DHT22;30234;48.090;11.464;2023-07-31T08:51:54;23.90;93.20
27779;DHT22;30234;48.090;11.464;2023-07-31T08:55:56;22.90;94.10
27779;DHT22;30234;48.090;11.464;2023-07-31T09:00:03;22.40;96.10
27779;DHT22;30234;48.090;11.464;2023-07-31T09:04:07;22.50;96.40
27779;DHT22;30234;48.090;11.464;2023-07-31T09:08:11;23.20;95.50
27779;DHT22;30234;48.090;11.464;2023-07-31T09:12:12;23.60;94.10
27779;DHT22;30234;48.090;11.464;2023-07-31T09:16:13;25.20;92.70
27779;DHT22;30234;48.090;11.464;2023-07-31T09:20:21;26.90;90.10
27779;DHT22;30234;48.090;11.464;2023-07-31T09:24:30;26.60;90.30
27779;DHT22;30234;48.090;11.464;2023-07-31T09:28:31;27.60;87.00
27779;DHT22;30234;48.090;11.464;2023-07-31T09:32:32;27.40;85.50
27779;DHT22;30234;48.090;11.464;2023-07-31T09:36:43;28.00;83.90
27779;DHT22;30234;48.090;11.464;2023-07-31T09:40:48;29.30;81.60
27779;DHT22;30234;48.090;11.464;2023-07-31T09:44:49;28.70;79.60
27779;DHT22;30234;48.090;11.464;2023-07-31T09:48:50;28.50;81.20
27779;DHT22;30234;48.090;11.464;2023-07-31T09:52:51;30.70;76.30
27779;DHT22;30234;48.090;11.464;2023-07-31T09:56:54;29.90;73.00
27779;DHT22;30234;48.090;11.464;2023-07-31T10:00:57;30.40;71.30
27779;DHT22;30234;48.090;11.464;2023-07-31T10:05:01;29.20;72.10
27779;DHT22;30234;48.090;11.464;2023-07-31T10:09:06;28.30;72.40
27779;DHT22;30234;48.090;11.464;2023-07-31T10:13:12;27.90;73.90
27779;DHT22;30234;48.090;11.464;2023-07-31T10:17:14;29.80;72.30
27779;DHT22;30234;48.090;11.464;2023-07-31T10:21:16;29.10;71.50
27779;DHT22;30234;48.090;11.464;2023-07-31T10:25:18;28.70;73.40
27779;DHT22;30234;48.090;11.464;2023-07-31T10:29:21;28.90;68.90
27779;DHT22;30234;48.090;11.464;2023-07-31T10:33:23;28.00;70.70
27779;DHT22;30234;48.090;11.464;2023-07-31T10:41:31;27.90;72.50
27779;DHT22;30234;48.090;11.464;2023-07-31T10:45:34;29.60;68.30
27779;DHT22;30234;48.090;11.464;2023-07-31T10:49:39;29.40;68.10
27779;DHT22;30234;48.090;11.464;2023-07-31T10:53:40;28.00;70.10
27779;DHT22;30234;48.090;11.464;2023-07-31T10:57:47;26.90;72.50
27779;DHT22;30234;48.090;11.464;2023-07-31T11:01:53;27.80;72.50
27779;DHT22;30234;48.090;11.464;2023-07-31T11:06:03;26.90;74.40
27779;DHT22;30234;48.090;11.464;2023-07-31T11:10:05;27.00;74.30
27779;DHT22;30234;48.090;11.464;2023-07-31T11:14:06;26.80;72.00
27779;DHT22;30234;48.090;11.464;2023-07-31T11:18:11;26.60;73.10
27779;DHT22;30234;48.090;11.464;2023-07-31T11:22:12;26.80;73.30
27779;DHT22;30234;48.090;11.464;2023-07-31T11:26:13;27.50;72.70
27779;DHT22;30234;48.090;11.464;2023-07-31T11:30:14;28.90;70.30
27779;DHT22;30234;48.090;11.464;2023-07-31T11:34:15;28.90;69.00
27779;DHT22;30234;48.090;11.464;2023-07-31T11:38:33;28.90;67.90
27779;DHT22;30234;48.090;11.464;2023-07-31T11:42:37;28.40;69.40
27779;DHT22;30234;48.090;11.464;2023-07-31T11:46:38;29.30;68.30
27779;DHT22;30234;48.090;11.464;2023-07-31T11:50:39;28.90;65.60
27779;DHT22;30234;48.090;11.464;2023-07-31T11:54:40;29.20;66.90
27779;DHT22;30234;48.090;11.464;2023-07-31T11:58:43;29.10;63.80
27779;DHT22;30234;48.090;11.464;2023-07-31T12:02:46;29.00;63.80
27779;DHT22;30234;48.090;11.464;2023-07-31T12:06:47;28.90;63.40
27779;DHT22;30234;48.090;11.464;2023-07-31T12:10:50;27.90;63.30
27779;DHT22;30234;48.090;11.464;2023-07-31T12:14:52;27.00;66.10
27779;DHT22;30234;48.090;11.464;2023-07-31T12:18:53;27.10;67.10
27779;DHT22;30234;48.090;11.464;2023-07-31T12:22:56;27.90;67.40
27779;DHT22;30234;48.090;11.464;2023-07-31T12:26:58;29.40;63.40
27779;DHT22;30234;48.090;11.464;2023-07-31T12:31:00;29.90;61.90
27779;DHT22;30234;48.090;11.464;2023-07-31T12:35:06;29.40;63.10
27779;DHT22;30234;48.090;11.464;2023-07-31T12:39:07;28.40;63.50
27779;DHT22;30234;48.090;11.464;2023-07-31T12:43:08;28.10;63.60
27779;DHT22;30234;48.090;11.464;2023-07-31T12:47:09;29.50;63.20
27779;DHT22;30234;48.090;11.464;2023-07-31T12:51:10;30.10;60.10
27779;DHT22;30234;48.090;11.464;2023-07-31T12:55:11;29.80;63.00
27779;DHT22;30234;48.090;11.464;2023-07-31T12:59:12;29.20;61.80
27779;DHT22;30234;48.090;11.464;2023-07-31T13:03:14;28.40;62.20
27779;DHT22;30234;48.090;11.464;2023-07-31T13:07:16;28.00;62.60
27779;DHT22;30234;48.090;11.464;2023-07-31T13:11:17;28.00;65.70
27779;DHT22;30234;48.090;11.464;2023-07-31T13:15:18;30.10;60.30
27779;DHT22;30234;48.090;11.464;2023-07-31T13:19:19;29.90;59.60
27779;DHT22;30234;48.090;11.464;2023-07-31T13:23:22;28.90;63.00
27779;DHT22;30234;48.090;11.464;2023-07-31T13:27:23;27.60;64.80
27779;DHT22;30234;48.090;11.464;2023-07-31T13:31:25;29.00;64.00
27779;DHT22;30234;48.090;11.464;2023-07-31T13:35:26;28.90;61.90
27779;DHT22;30234;48.090;11.464;2023-07-31T13:39:27;29.90;63.10
27779;DHT22;30234;48.090;11.464;2023-07-31T13:43:28;29.50;59.20
27779;DHT22;30234;48.090;11.464;2023-07-31T13:47:29;27.90;61.90
27779;DHT22;30234;48.090;11.464;2023-07-31T13:51:31;28.20;63.80
27779;DHT22;30234;48.090;11.464;2023-07-31T13:55:32;29.50;60.80
27779;DHT22;30234;48.090;11.464;2023-07-31T13:59:33;29.50;59.30
27779;DHT22;30234;48.090;11.464;2023-07-31T14:03:34;28.50;62.90
27779;DHT22;30234;48.090;11.464;2023-07-31T14:07:35;28.80;61.30
27779;DHT22;30234;48.090;11.464;2023-07-31T14:11:36;27.90;62.60
27779;DHT22;30234;48.090;11.464;2023-07-31T14:15:43;27.30;64.50
27779;DHT22;30234;48.090;11.464;2023-07-31T14:19:44;27.20;64.20
27779;DHT22;30234;48.090;11.464;2023-07-31T14:23:46;27.10;64.90
27779;DHT22;30234;48.090;11.464;2023-07-31T14:27:47;27.30;65.40
27779;DHT22;30234;48.090;11.464;2023-07-31T14:31:48;27.70;64.60
27779;DHT22;30234;48.090;11.464;2023-07-31T14:35:49;29.30;62.40
27779;DHT22;30234;48.090;11.464;2023-07-31T14:39:50;30.50;59.30
27779;DHT22;30234;48.090;11.464;2023-07-31T14:43:51;30.10;58.20
27779;DHT22;30234;48.090;11.464;2023-07-31T14:47:52;30.50;58.90
27779;DHT22;30234;48.090;11.464;2023-07-31T14:51:53;30.80;57.90
27779;DHT22;30234;48.090;11.464;2023-07-31T14:55:53;30.70;56.90
27779;DHT22;30234;48.090;11.464;2023-07-31T14:59:55;29.90;58.00
27779;DHT22;30234;48.090;11.464;2023-07-31T15:03:56;29.70;57.80
27779;DHT22;30234;48.090;11.464;2023-07-31T15:07:56;29.40;61.30
27779;DHT22;30234;48.090;11.464;2023-07-31T15:11:57;30.00;59.90
27779;DHT22;30234;48.090;11.464;2023-07-31T15:15:59;30.00;60.40
27779;DHT22;30234;48.090;11.464;2023-07-31T15:20:00;28.90;61.50
27779;DHT22;30234;48.090;11.464;2023-07-31T15:24:01;27.80;62.00
27779;DHT22;30234;48.090;11.464;2023-07-31T15:28:02;27.50;63.00
27779;DHT22;30234;48.090;11.464;2023-07-31T15:32:04;27.40;64.20
27779;DHT22;30234;48.090;11.464;2023-07-31T15:36:06;26.80;64.80
27779;DHT22;30234;48.090;11.464;2023-07-31T15:40:07;26.20;66.80
27779;DHT22;30234;48.090;11.464;2023-07-31T15:44:11;25.90;68.00
27779;DHT22;30234;48.090;11.464;2023-07-31T15:48:12;25.80;68.70
27779;DHT22;30234;48.090;11.464;2023-07-31T15:52:13;25.50;69.80
27779;DHT22;30234;48.090;11.464;2023-07-31T15:56:14;25.30;70.10
27779;DHT22;30234;48.090;11.464;2023-07-31T16:00:17;25.10;70.60
27779;DHT22;30234;48.090;11.464;2023-07-31T16:04:18;25.10;71.50
27779;DHT22;30234;48.090;11.464;2023-07-31T16:08:19;25.00;71.10
27779;DHT22;30234;48.090;11.464;2023-07-31T16:12:20;24.70;72.00
27779;DHT22;30234;48.090;11.464;2023-07-31T16:16:21;24.60;72.50
27779;DHT22;30234;48.090;11.464;2023-07-31T16:20:22;24.50;72.70
27779;DHT22;30234;48.090;11.464;2023-07-31T16:24:23;24.50;73.00
27779;DHT22;30234;48.090;11.464;2023-07-31T16:28:24;24.40;74.30
27779;DHT22;30234;48.090;11.464;2023-07-31T16:32:26;24.30;74.80
27779;DHT22;30234;48.090;11.464;2023-07-31T16:36:28;24.00;75.80
27779;DHT22;30234;48.090;11.464;2023-07-31T16:40:29;23.90;76.20
27779;DHT22;30234;48.090;11.464;2023-07-31T16:44:30;23.70;76.80
27779;DHT22;30234;48.090;11.464;2023-07-31T16:48:31;23.50;78.00
27779;DHT22;30234;48.090;11.464;2023-07-31T16:52:32;23.30;79.10
27779;DHT22;30234;48.090;11.464;2023-07-31T16:56:33;23.00;81.60
27779;DHT22;30234;48.090;11.464;2023-07-31T17:00:33;22.90;82.70
27779;DHT22;30234;48.090;11.464;2023-07-31T17:04:34;22.90;83.30
27779;DHT22;30234;48.090;11.464;2023-07-31T17:08:35;22.80;84.00
27779;DHT22;30234;48.090;11.464;2023-07-31T17:12:36;23.10;83.70
27779;DHT22;30234;48.090;11.464;2023-07-31T17:16:37;23.20;83.80
27779;DHT22;30234;48.090;11.464;2023-07-31T17:20:38;23.30;83.40
27779;DHT22;30234;48.090;11.464;2023-07-31T17:24:39;23.30;84.20
27779;DHT22;30234;48.090;11.464;2023-07-31T17:28:40;23.10;84.30
27779;DHT22;30234;48.090;11.464;2023-07-31T17:32:41;23.10;85.00
27779;DHT22;30234;48.090;11.464;2023-07-31T17:36:42;23.00;85.40
27779;DHT22;30234;48.090;11.464;2023-07-31T17:40:43;22.80;85.70
27779;DHT22;30234;48.090;11.464;2023-07-31T17:44:44;22.70;87.60
27779;DHT22;30234;48.090;11.464;2023-07-31T17:48:46;22.50;86.00
27779;DHT22;30234;48.090;11.464;2023-07-31T17:52:47;22.50;86.80
27779;DHT22;30234;48.090;11.464;2023-07-31T17:56:47;22.50;84.40
27779;DHT22;30234;48.090;11.464;2023-07-31T18:00:48;22.50;86.10
27779;DHT22;30234;48.090;11.464;2023-07-31T18:04:51;22.40;86.20
27779;DHT22;30234;48.090;11.464;2023-07-31T18:08:55;22.50;87.00
27779;DHT22;30234;48.090;11.464;2023-07-31T18:12:55;22.30;87.30
27779;DHT22;30234;48.090;11.464;2023-07-31T18:16:56;22.10;87.90
27779;DHT22;30234;48.090;11.464;2023-07-31T18:20:57;22.10;89.30
27779;DHT22;30234;48.090;11.464;2023-07-31T18:24:59;21.80;90.10
27779;DHT22;30234;48.090;11.464;2023-07-31T18:29:00;21.60;90.40
27779;DHT22;30234;48.090;11.464;2023-07-31T18:33:01;21.60;90.70
27779;DHT22;30234;48.090;11.464;2023-07-31T18:37:02;21.40;91.20
27779;DHT22;30234;48.090;11.464;2023-07-31T18:41:05;21.30;91.70
27779;DHT22;30234;48.090;11.464;2023-07-31T18:45:07;21.10;92.00
27779;DHT22;30234;48.090;11.464;2023-07-31T18:49:08;21.00;92.20
27779;DHT22;30234;48.090;11.464;2023-07-31T18:53:09;20.80;92.80
27779;DHT22;30234;48.090;11.464;2023-07-31T18:57:10;20.60;93.20
27779;DHT22;30234;48.090;11.464;2023-07-31T19:01:11;20.30;94.00
27779;DHT22;30234;48.090;11.464;2023-07-31T19:05:12;20.00;94.80
27779;DHT22;30234;48.090;11.464;2023-07-31T19:09:13;19.70;95.50
27779;DHT22;30234;48.090;11.464;2023-07-31T19:13:14;19.50;96.40
27779;DHT22;30234;48.090;11.464;2023-07-31T19:17:15;19.50;96.40
27779;DHT22;30234;48.090;11.464;2023-07-31T19:21:16;19.60;96.90
27779;DHT22;30234;48.090;11.464;2023-07-31T19:25:17;19.30;97.70
27779;DHT22;30234;48.090;11.464;2023-07-31T19:29:18;19.20;98.20
27779;DHT22;30234;48.090;11.464;2023-07-31T19:33:19;19.20;98.80
27779;DHT22;30234;48.090;11.464;2023-07-31T19:37:20;19.20;99.30
27779;DHT22;30234;48.090;11.464;2023-07-31T19:41:21;19.30;99.10
27779;DHT22;30234;48.090;11.464;2023-07-31T19:45:22;19.30;99.30
27779;DHT22;30234;48.090;11.464;2023-07-31T19:49:23;19.30;99.90
27779;DHT22;30234;48.090;11.464;2023-07-31T19:53:24;19.30;99.90
27779;DHT22;30234;48.090;11.464;2023-07-31T19:57:25;19.20;99.90
27779;DHT22;30234;48.090;11.464;2023-07-31T20:01:27;19.20;99.90
27779;DHT22;30234;48.090;11.464;2023-07-31T20:05:29;19.10;99.90
27779;DHT22;30234;48.090;11.464;2023-07-31T20:09:30;19.00;99.90
27779;DHT22;30234;48.090;11.464;2023-07-31T20:13:31;18.90;99.90
27779;DHT22;30234;48.090;11.464;2023-07-31T20:17:32;18.80;99.90
27779;DHT22;30234;48.090;11.464;2023-07-31T20:21:33;18.80;99.90
27779;DHT22;30234;48.090;11.464;2023-07-31T20:25:34;18.80;99.90
27779;DHT22;30234;48.090;11.464;2023-07-31T20:29:35;18.90;99.90
27779;DHT22;30234;48.090;11.464;2023-07-31T20:33:36;19.00;99.90
27779;DHT22;30234;48.090;11.464;2023-07-31T20:37:37;19.10;99.90
27779;DHT22;30234;48.090;11.464;2023-07-31T20:41:38;19.00;99.90
27779;DHT22;30234;48.090;11.464;2023-07-31T20:45:39;19.00;99.90
27779;DHT22;30234;48.090;11.464;2023-07-31T20:49:40;19.00;99.90
27779;DHT22;30234;48.090;11.464;2023-07-31T20:53:41;19.00;99.90
27779;DHT22;30234;48.090;11.464;2023-07-31T20:57:42;19.00;99.90
27779;DHT22;30234;48.090;11.464;2023-07-31T21:01:43;19.10;99.90
27779;DHT22;30234;48.090;11.464;2023-07-31T21:05:52;19.00;99.90
27779;DHT22;30234;48.090;11.464;2023-07-31T21:09:54;19.10;99.90
27779;DHT22;30234;48.090;11.464;2023-07-31T21:13:55;19.00;99.90
27779;DHT22;30234;48.090;11.464;2023-07-31T21:17:58;19.00;99.90
27779;DHT22;30234;48.090;11.464;2023-07-31T21:21:59;19.00;99.90
27779;DHT22;30234;48.090;11.464;2023-07-31T21:26:00;19.10;99.90
27779;DHT22;30234;48.090;11.464;2023-07-31T21:30:01;19.00;99.90
27779;DHT22;30234;48.090;11.464;2023-07-31T21:34:03;19.00;99.90
27779;DHT22;30234;48.090;11.464;2023-07-31T21:38:04;18.90;99.90
27779;DHT22;30234;48.090;11.464;2023-07-31T21:42:06;19.00;99.90
27779;DHT22;30234;48.090;11.464;2023-07-31T21:46:08;19.00;99.90
27779;DHT22;30234;48.090;11.464;2023-07-31T21:50:10;19.00;99.90
27779;DHT22;30234;48.090;11.464;2023-07-31T21:54:11;19.10;99.90
27779;DHT22;30234;48.090;11.464;2023-07-31T21:58:12;19.00;99.90
27779;DHT22;30234;48.090;11.464;2023-07-31T22:02:12;19.00;99.90
27779;DHT22;30234;48.090;11.464;2023-07-31T22:06:13;19.00;99.90
27779;DHT22;30234;48.090;11.464;2023-07-31T22:10:14;18.90;99.90
27779;DHT22;30234;48.090;11.464;2023-07-31T22:14:15;18.90;99.90
27779;DHT22;30234;48.090;11.464;2023-07-31T22:18:16;19.00;99.90
27779;DHT22;30234;48.090;11.464;2023-07-31T22:22:18;19.10;99.90
27779;DHT22;30234;48.090;11.464;2023-07-31T22:26:18;19.10;99.90
27779;DHT22;30234;48.090;11.464;2023-07-31T22:30:19;18.80;99.90
27779;DHT22;30234;48.090;11.464;2023-07-31T22:34:22;18.60;99.90
27779;DHT22;30234;48.090;11.464;2023-07-31T22:38:22;18.60;99.90
27779;DHT22;30234;48.090;11.464;2023-07-31T22:42:23;18.50;99.90
27779;DHT22;30234;48.090;11.464;2023-07-31T22:46:24;18.50;99.90
27779;DHT22;30234;48.090;11.464;2023-07-31T22:50:25;18.40;99.90
27779;DHT22;30234;48.090;11.464;2023-07-31T22:54:26;18.30;99.90
27779;DHT22;30234;48.090;11.464;2023-07-31T22:58:27;18.00;99.90
27779;DHT22;30234;48.090;11.464;2023-07-31T23:02:28;18.20;99.90
27779;DHT22;30234;48.090;11.464;2023-07-31T23:06:29;17.80;99.90
27779;DHT22;30234;48.090;11.464;2023-07-31T23:10:29;17.80;99.90
27779;DHT22;30234;48.090;11.464;2023-07-31T23:14:30;17.90;99.90
27779;DHT22;30234;48.090;11.464;2023-07-31T23:18:31;17.70;99.90
27779;DHT22;30234;48.090;11.464;2023-07-31T23:22:32;17.80;99.90
27779;DHT22;30234;48.090;11.464;2023-07-31T23:26:33;17.70;99.90
27779;DHT22;30234;48.090;11.464;2023-07-31T23:30:34;17.60;99.90
27779;DHT22;30234;48.090;11.464;2023-07-31T23:34:35;17.60;99.90
27779;DHT22;30234;48.090;11.464;2023-07-31T23:38:35;17.70;99.90
27779;DHT22;30234;48.090;11.464;2023-07-31T23:42:36;17.70;99.90
27779;DHT22;30234;48.090;11.464;2023-07-31T23:46:37;17.80;99.90
27779;DHT22;30234;48.090;11.464;2023-07-31T23:50:38;17.70;99.90
27779;DHT22;30234;48.090;11.464;2023-07-31T23:54:40;17.50;99.90
27779;DHT22;30234;48.090;11.464;2023-07-31T23:58:41;17.40;99.90
